sensor_id;sensor_type;location;lat;lon;timestamp;temperature;humidity
81383;DHT22;70834;37.534;-122.308;2023-11-19T00:02:08;19.90;80.10
81383;DHT22;70834;37.534;-122.308;2023-11-19T00:04:29;19.80;80.20
81383;DHT22;70834;37.534;-122.308;2023-11-19T00:06:51;19.80;80.20
81383;DHT22;70834;37.534;-122.308;2023-11-19T00:09:12;19.80;80.40
81383;DHT22;70834;37.534;-122.308;2023-11-19T00:11:34;19.70;80.50
81383;DHT22;70834;37.534;-122.308;2023-11-19T00:13:55;19.70;81.00
81383;DHT22;70834;37.534;-122.308;2023-11-19T00:16:16;19.60;80.40
81383;DHT22;70834;37.534;-122.308;2023-11-19T00:18:38;19.60;80.60
81383;DHT22;70834;37.534;-122.308;2023-11-19T00:20:59;19.60;80.80
81383;DHT22;70834;37.534;-122.308;2023-11-19T00:23:20;19.50;80.90
81383;DHT22;70834;37.534;-122.308;2023-11-19T00:25:44;19.50;81.10
81383;DHT22;70834;37.534;-122.308;2023-11-19T00:28:05;19.40;81.30
81383;DHT22;70834;37.534;-122.308;2023-11-19T00:30:26;19.40;81.40
81383;DHT22;70834;37.534;-122.308;2023-11-19T00:32:48;19.40;81.40
81383;DHT22;70834;37.534;-122.308;2023-11-19T00:35:09;19.30;81.60
81383;DHT22;70834;37.534;-122.308;2023-11-19T00:37:31;19.30;81.80
81383;DHT22;70834;37.534;-122.308;2023-11-19T00:39:52;19.30;82.00
81383;DHT22;70834;37.534;-122.308;2023-11-19T00:42:14;19.20;82.30
81383;DHT22;70834;37.534;-122.308;2023-11-19T00:44:35;19.20;82.40
81383;DHT22;70834;37.534;-122.308;2023-11-19T00:46:57;19.20;82.30
81383;DHT22;70834;37.534;-122.308;2023-11-19T00:49:19;19.20;82.30
81383;DHT22;70834;37.534;-122.308;2023-11-19T00:51:40;19.20;82.40
81383;DHT22;70834;37.534;-122.308;2023-11-19T00:54:02;19.20;82.30
81383;DHT22;70834;37.534;-122.308;2023-11-19T00:56:23;19.10;82.30
81383;DHT22;70834;37.534;-122.308;2023-11-19T00:58:45;19.10;82.30
81383;DHT22;70834;37.534;-122.308;2023-11-19T01:01:06;19.10;82.30
81383;DHT22;70834;37.534;-122.308;2023-11-19T01:03:28;19.10;82.20
81383;DHT22;70834;37.534;-122.308;2023-11-19T01:05:49;19.10;82.30
81383;DHT22;70834;37.534;-122.308;2023-11-19T01:08:11;19.00;82.20
81383;DHT22;70834;37.534;-122.308;2023-11-19T01:10:32;19.00;82.30
81383;DHT22;70834;37.534;-122.308;2023-11-19T01:12:54;19.00;82.20
81383;DHT22;70834;37.534;-122.308;2023-11-19T01:15:16;18.90;82.20
81383;DHT22;70834;37.534;-122.308;2023-11-19T01:17:39;18.90;82.30
81383;DHT22;70834;37.534;-122.308;2023-11-19T01:20:01;18.90;82.20
81383;DHT22;70834;37.534;-122.308;2023-11-19T01:22:23;18.80;82.20
81383;DHT22;70834;37.534;-122.308;2023-11-19T01:24:44;18.80;82.40
81383;DHT22;70834;37.534;-122.308;2023-11-19T01:27:05;18.80;82.50
81383;DHT22;70834;37.534;-122.308;2023-11-19T01:29:27;18.80;82.60
81383;DHT22;70834;37.534;-122.308;2023-11-19T01:31:48;18.80;82.70
81383;DHT22;70834;37.534;-122.308;2023-11-19T01:34:12;18.70;82.60
81383;DHT22;70834;37.534;-122.308;2023-11-19T01:36:33;18.70;82.70
81383;DHT22;70834;37.534;-122.308;2023-11-19T01:38:54;18.70;82.80
81383;DHT22;70834;37.534;-122.308;2023-11-19T01:41:16;18.70;82.80
81383;DHT22;70834;37.534;-122.308;2023-11-19T01:43:39;18.70;82.90
81383;DHT22;70834;37.534;-122.308;2023-11-19T01:46:07;18.70;82.80
81383;DHT22;70834;37.534;-122.308;2023-11-19T01:48:33;18.60;82.90
81383;DHT22;70834;37.534;-122.308;2023-11-19T01:50:57;18.60;82.90
81383;DHT22;70834;37.534;-122.308;2023-11-19T01:53:19;18.60;82.80
81383;DHT22;70834;37.534;-122.308;2023-11-19T01:55:40;18.60;82.90
81383;DHT22;70834;37.534;-122.308;2023-11-19T01:58:02;18.60;83.00
81383;DHT22;70834;37.534;-122.308;2023-11-19T02:00:24;18.60;83.00
81383;DHT22;70834;37.534;-122.308;2023-11-19T02:02:46;18.60;83.10
81383;DHT22;70834;37.534;-122.308;2023-11-19T02:05:10;18.60;83.20
81383;DHT22;70834;37.534;-122.308;2023-11-19T02:07:32;18.60;83.30
81383;DHT22;70834;37.534;-122.308;2023-11-19T02:09:53;18.50;83.30
81383;DHT22;70834;37.534;-122.308;2023-11-19T02:12:15;18.50;83.30
81383;DHT22;70834;37.534;-122.308;2023-11-19T02:14:36;18.50;83.30
81383;DHT22;70834;37.534;-122.308;2023-11-19T02:16:58;18.50;83.40
81383;DHT22;70834;37.534;-122.308;2023-11-19T02:19:20;18.50;83.40
81383;DHT22;70834;37.534;-122.308;2023-11-19T02:21:41;18.50;83.40
81383;DHT22;70834;37.534;-122.308;2023-11-19T02:24:06;18.50;83.50
81383;DHT22;70834;37.534;-122.308;2023-11-19T02:26:39;18.40;83.60
81383;DHT22;70834;37.534;-122.308;2023-11-19T02:29:01;18.50;83.60
81383;DHT22;70834;37.534;-122.308;2023-11-19T02:31:23;18.50;83.40
81383;DHT22;70834;37.534;-122.308;2023-11-19T02:33:45;18.40;83.00
81383;DHT22;70834;37.534;-122.308;2023-11-19T02:36:07;18.40;83.00
81383;DHT22;70834;37.534;-122.308;2023-11-19T02:38:29;18.40;83.00
81383;DHT22;70834;37.534;-122.308;2023-11-19T02:40:51;18.30;83.10
81383;DHT22;70834;37.534;-122.308;2023-11-19T02:43:13;18.30;83.00
81383;DHT22;70834;37.534;-122.308;2023-11-19T02:45:34;18.30;83.00
81383;DHT22;70834;37.534;-122.308;2023-11-19T02:47:56;18.20;83.00
81383;DHT22;70834;37.534;-122.308;2023-11-19T02:50:19;18.30;83.20
81383;DHT22;70834;37.534;-122.308;2023-11-19T02:52:45;18.20;83.30
81383;DHT22;70834;37.534;-122.308;2023-11-19T02:55:07;18.20;83.40
81383;DHT22;70834;37.534;-122.308;2023-11-19T02:57:33;18.20;83.30
81383;DHT22;70834;37.534;-122.308;2023-11-19T02:59:55;18.20;83.30
81383;DHT22;70834;37.534;-122.308;2023-11-19T03:02:17;18.20;83.40
81383;DHT22;70834;37.534;-122.308;2023-11-19T03:04:38;18.20;83.30
81383;DHT22;70834;37.534;-122.308;2023-11-19T03:07:04;18.20;83.40
81383;DHT22;70834;37.534;-122.308;2023-11-19T03:09:26;18.20;83.40
81383;DHT22;70834;37.534;-122.308;2023-11-19T03:11:47;18.20;83.00
81383;DHT22;70834;37.534;-122.308;2023-11-19T03:14:09;18.20;82.80
81383;DHT22;70834;37.534;-122.308;2023-11-19T03:16:30;18.20;82.80
81383;DHT22;70834;37.534;-122.308;2023-11-19T03:18:51;18.20;82.60
81383;DHT22;70834;37.534;-122.308;2023-11-19T03:21:13;18.20;82.60
81383;DHT22;70834;37.534;-122.308;2023-11-19T03:23:35;18.20;82.60
81383;DHT22;70834;37.534;-122.308;2023-11-19T03:25:56;18.20;82.70
81383;DHT22;70834;37.534;-122.308;2023-11-19T03:28:18;18.20;82.80
81383;DHT22;70834;37.534;-122.308;2023-11-19T03:30:39;18.20;82.60
81383;DHT22;70834;37.534;-122.308;2023-11-19T03:33:01;18.20;82.70
81383;DHT22;70834;37.534;-122.308;2023-11-19T03:35:23;18.20;82.50
81383;DHT22;70834;37.534;-122.308;2023-11-19T03:37:44;18.20;82.40
81383;DHT22;70834;37.534;-122.308;2023-11-19T03:40:06;18.20;82.20
81383;DHT22;70834;37.534;-122.308;2023-11-19T03:42:31;18.20;81.90
81383;DHT22;70834;37.534;-122.308;2023-11-19T03:44:53;18.20;81.80
81383;DHT22;70834;37.534;-122.308;2023-11-19T03:47:15;18.20;82.00
81383;DHT22;70834;37.534;-122.308;2023-11-19T03:49:36;18.20;82.00
81383;DHT22;70834;37.534;-122.308;2023-11-19T03:51:57;18.20;81.90
81383;DHT22;70834;37.534;-122.308;2023-11-19T03:54:19;18.10;81.90
81383;DHT22;70834;37.534;-122.308;2023-11-19T03:56:42;18.20;81.70
81383;DHT22;70834;37.534;-122.308;2023-11-19T03:59:03;18.10;81.70
81383;DHT22;70834;37.534;-122.308;2023-11-19T04:01:25;18.10;81.70
81383;DHT22;70834;37.534;-122.308;2023-11-19T04:03:46;18.10;81.90
81383;DHT22;70834;37.534;-122.308;2023-11-19T04:06:07;18.00;82.20
81383;DHT22;70834;37.534;-122.308;2023-11-19T04:08:29;18.00;82.30
81383;DHT22;70834;37.534;-122.308;2023-11-19T04:10:50;18.00;81.90
81383;DHT22;70834;37.534;-122.308;2023-11-19T04:13:12;18.00;81.80
81383;DHT22;70834;37.534;-122.308;2023-11-19T04:15:33;18.00;81.70
81383;DHT22;70834;37.534;-122.308;2023-11-19T04:17:55;18.00;81.80
81383;DHT22;70834;37.534;-122.308;2023-11-19T04:20:16;17.90;81.90
81383;DHT22;70834;37.534;-122.308;2023-11-19T04:22:38;17.90;81.90
81383;DHT22;70834;37.534;-122.308;2023-11-19T04:24:59;17.80;81.40
81383;DHT22;70834;37.534;-122.308;2023-11-19T04:27:20;17.80;81.40
81383;DHT22;70834;37.534;-122.308;2023-11-19T04:29:44;17.70;81.20
81383;DHT22;70834;37.534;-122.308;2023-11-19T04:32:07;17.60;81.10
81383;DHT22;70834;37.534;-122.308;2023-11-19T04:34:29;17.50;81.30
81383;DHT22;70834;37.534;-122.308;2023-11-19T04:36:51;17.50;81.30
81383;DHT22;70834;37.534;-122.308;2023-11-19T04:39:12;17.40;81.30
81383;DHT22;70834;37.534;-122.308;2023-11-19T04:41:36;17.40;81.70
81383;DHT22;70834;37.534;-122.308;2023-11-19T04:43:57;17.30;81.80
81383;DHT22;70834;37.534;-122.308;2023-11-19T04:46:19;17.30;82.30
81383;DHT22;70834;37.534;-122.308;2023-11-19T04:48:40;17.30;82.80
81383;DHT22;70834;37.534;-122.308;2023-11-19T04:51:05;17.30;83.00
81383;DHT22;70834;37.534;-122.308;2023-11-19T04:53:26;17.30;83.20
81383;DHT22;70834;37.534;-122.308;2023-11-19T04:55:48;17.40;82.60
81383;DHT22;70834;37.534;-122.308;2023-11-19T04:58:09;17.50;80.20
81383;DHT22;70834;37.534;-122.308;2023-11-19T05:00:31;17.50;79.20
81383;DHT22;70834;37.534;-122.308;2023-11-19T05:02:55;17.50;78.90
81383;DHT22;70834;37.534;-122.308;2023-11-19T05:05:16;17.30;78.70
81383;DHT22;70834;37.534;-122.308;2023-11-19T05:07:41;17.30;78.20
81383;DHT22;70834;37.534;-122.308;2023-11-19T05:10:03;17.20;78.50
81383;DHT22;70834;37.534;-122.308;2023-11-19T05:12:25;17.10;78.90
81383;DHT22;70834;37.534;-122.308;2023-11-19T05:14:46;17.10;79.60
81383;DHT22;70834;37.534;-122.308;2023-11-19T05:17:10;17.00;79.50
81383;DHT22;70834;37.534;-122.308;2023-11-19T05:19:32;16.90;79.40
81383;DHT22;70834;37.534;-122.308;2023-11-19T05:21:53;16.90;79.30
81383;DHT22;70834;37.534;-122.308;2023-11-19T05:24:15;16.90;79.20
81383;DHT22;70834;37.534;-122.308;2023-11-19T05:26:36;16.90;78.70
81383;DHT22;70834;37.534;-122.308;2023-11-19T05:28:58;16.80;78.90
81383;DHT22;70834;37.534;-122.308;2023-11-19T05:31:19;16.70;79.40
81383;DHT22;70834;37.534;-122.308;2023-11-19T05:33:40;16.70;79.40
81383;DHT22;70834;37.534;-122.308;2023-11-19T05:36:02;16.60;79.10
81383;DHT22;70834;37.534;-122.308;2023-11-19T05:38:24;16.50;78.50
81383;DHT22;70834;37.534;-122.308;2023-11-19T05:40:48;16.50;78.60
81383;DHT22;70834;37.534;-122.308;2023-11-19T05:43:10;16.40;78.70
81383;DHT22;70834;37.534;-122.308;2023-11-19T05:45:35;16.30;79.00
81383;DHT22;70834;37.534;-122.308;2023-11-19T05:47:56;16.30;78.90
81383;DHT22;70834;37.534;-122.308;2023-11-19T05:50:18;16.20;79.50
81383;DHT22;70834;37.534;-122.308;2023-11-19T05:52:40;16.10;79.70
81383;DHT22;70834;37.534;-122.308;2023-11-19T05:55:01;16.10;79.60
81383;DHT22;70834;37.534;-122.308;2023-11-19T05:57:30;16.10;79.60
81383;DHT22;70834;37.534;-122.308;2023-11-19T05:59:51;16.00;79.60
81383;DHT22;70834;37.534;-122.308;2023-11-19T06:02:14;16.00;79.80
81383;DHT22;70834;37.534;-122.308;2023-11-19T06:04:36;15.90;79.70
81383;DHT22;70834;37.534;-122.308;2023-11-19T06:06:57;15.90;79.80
81383;DHT22;70834;37.534;-122.308;2023-11-19T06:09:18;15.80;79.90
81383;DHT22;70834;37.534;-122.308;2023-11-19T06:11:40;15.70;80.00
81383;DHT22;70834;37.534;-122.308;2023-11-19T06:14:02;15.70;80.00
81383;DHT22;70834;37.534;-122.308;2023-11-19T06:16:26;15.70;79.70
81383;DHT22;70834;37.534;-122.308;2023-11-19T06:18:47;15.60;79.70
81383;DHT22;70834;37.534;-122.308;2023-11-19T06:21:09;15.50;79.80
81383;DHT22;70834;37.534;-122.308;2023-11-19T06:23:31;15.50;79.90
81383;DHT22;70834;37.534;-122.308;2023-11-19T06:25:52;15.40;79.10
81383;DHT22;70834;37.534;-122.308;2023-11-19T06:28:14;15.30;79.00
81383;DHT22;70834;37.534;-122.308;2023-11-19T06:30:35;15.30;78.10
81383;DHT22;70834;37.534;-122.308;2023-11-19T06:32:57;15.20;78.30
81383;DHT22;70834;37.534;-122.308;2023-11-19T06:35:18;15.10;78.50
81383;DHT22;70834;37.534;-122.308;2023-11-19T06:37:40;15.00;78.30
81383;DHT22;70834;37.534;-122.308;2023-11-19T06:40:02;15.00;78.10
81383;DHT22;70834;37.534;-122.308;2023-11-19T06:42:25;14.90;77.50
81383;DHT22;70834;37.534;-122.308;2023-11-19T06:44:47;14.80;77.10
81383;DHT22;70834;37.534;-122.308;2023-11-19T06:47:11;14.80;76.70
81383;DHT22;70834;37.534;-122.308;2023-11-19T06:49:32;14.70;76.80
81383;DHT22;70834;37.534;-122.308;2023-11-19T06:51:54;14.60;77.10
81383;DHT22;70834;37.534;-122.308;2023-11-19T06:54:15;14.60;77.00
81383;DHT22;70834;37.534;-122.308;2023-11-19T06:56:37;14.50;77.40
81383;DHT22;70834;37.534;-122.308;2023-11-19T06:58:58;14.40;77.40
81383;DHT22;70834;37.534;-122.308;2023-11-19T07:01:20;14.40;77.30
81383;DHT22;70834;37.534;-122.308;2023-11-19T07:03:48;14.30;77.40
81383;DHT22;70834;37.534;-122.308;2023-11-19T07:06:10;14.20;77.30
81383;DHT22;70834;37.534;-122.308;2023-11-19T07:08:31;14.20;77.50
81383;DHT22;70834;37.534;-122.308;2023-11-19T07:10:53;14.20;77.80
81383;DHT22;70834;37.534;-122.308;2023-11-19T07:13:14;14.10;78.10
81383;DHT22;70834;37.534;-122.308;2023-11-19T07:15:36;14.10;78.40
81383;DHT22;70834;37.534;-122.308;2023-11-19T07:17:58;14.00;78.40
81383;DHT22;70834;37.534;-122.308;2023-11-19T07:20:20;14.00;78.80
81383;DHT22;70834;37.534;-122.308;2023-11-19T07:22:45;13.90;79.00
81383;DHT22;70834;37.534;-122.308;2023-11-19T07:25:09;13.90;79.20
81383;DHT22;70834;37.534;-122.308;2023-11-19T07:27:31;13.80;79.30
81383;DHT22;70834;37.534;-122.308;2023-11-19T07:29:52;13.80;79.50
81383;DHT22;70834;37.534;-122.308;2023-11-19T07:32:13;13.70;79.60
81383;DHT22;70834;37.534;-122.308;2023-11-19T07:34:35;13.70;79.50
81383;DHT22;70834;37.534;-122.308;2023-11-19T07:36:56;13.60;79.70
81383;DHT22;70834;37.534;-122.308;2023-11-19T07:39:23;13.50;79.70
81383;DHT22;70834;37.534;-122.308;2023-11-19T07:41:44;13.50;79.80
81383;DHT22;70834;37.534;-122.308;2023-11-19T07:44:06;13.40;80.00
81383;DHT22;70834;37.534;-122.308;2023-11-19T07:46:27;13.40;80.20
81383;DHT22;70834;37.534;-122.308;2023-11-19T07:48:49;13.30;80.20
81383;DHT22;70834;37.534;-122.308;2023-11-19T07:51:11;13.30;80.20
81383;DHT22;70834;37.534;-122.308;2023-11-19T07:53:33;13.20;80.30
81383;DHT22;70834;37.534;-122.308;2023-11-19T07:55:55;13.20;80.40
81383;DHT22;70834;37.534;-122.308;2023-11-19T07:58:16;13.10;80.40
81383;DHT22;70834;37.534;-122.308;2023-11-19T08:00:38;13.10;80.60
81383;DHT22;70834;37.534;-122.308;2023-11-19T08:03:01;13.10;80.70
81383;DHT22;70834;37.534;-122.308;2023-11-19T08:05:22;13.00;80.90
81383;DHT22;70834;37.534;-122.308;2023-11-19T08:07:45;13.00;81.00
81383;DHT22;70834;37.534;-122.308;2023-11-19T08:10:07;13.00;81.10
81383;DHT22;70834;37.534;-122.308;2023-11-19T08:12:31;13.00;81.10
81383;DHT22;70834;37.534;-122.308;2023-11-19T08:14:53;12.80;81.10
81383;DHT22;70834;37.534;-122.308;2023-11-19T08:17:14;12.80;81.30
81383;DHT22;70834;37.534;-122.308;2023-11-19T08:19:36;12.80;81.40
81383;DHT22;70834;37.534;-122.308;2023-11-19T08:21:58;12.80;81.50
81383;DHT22;70834;37.534;-122.308;2023-11-19T08:24:19;12.80;81.70
81383;DHT22;70834;37.534;-122.308;2023-11-19T08:26:41;12.70;81.80
81383;DHT22;70834;37.534;-122.308;2023-11-19T08:29:03;12.70;81.90
81383;DHT22;70834;37.534;-122.308;2023-11-19T08:31:25;12.70;82.00
81383;DHT22;70834;37.534;-122.308;2023-11-19T08:33:47;12.70;82.20
81383;DHT22;70834;37.534;-122.308;2023-11-19T08:36:08;12.70;82.40
81383;DHT22;70834;37.534;-122.308;2023-11-19T08:38:30;12.70;82.70
81383;DHT22;70834;37.534;-122.308;2023-11-19T08:40:51;12.70;82.90
81383;DHT22;70834;37.534;-122.308;2023-11-19T08:43:13;12.70;83.00
81383;DHT22;70834;37.534;-122.308;2023-11-19T08:45:34;12.70;82.90
81383;DHT22;70834;37.534;-122.308;2023-11-19T08:47:57;12.70;82.80
81383;DHT22;70834;37.534;-122.308;2023-11-19T08:50:18;12.70;82.70
81383;DHT22;70834;37.534;-122.308;2023-11-19T08:52:40;12.70;82.60
81383;DHT22;70834;37.534;-122.308;2023-11-19T08:55:01;12.70;82.60
81383;DHT22;70834;37.534;-122.308;2023-11-19T08:57:24;12.60;83.10
81383;DHT22;70834;37.534;-122.308;2023-11-19T08:59:45;12.60;82.60
81383;DHT22;70834;37.534;-122.308;2023-11-19T09:02:06;12.60;82.60
81383;DHT22;70834;37.534;-122.308;2023-11-19T09:04:28;12.50;82.50
81383;DHT22;70834;37.534;-122.308;2023-11-19T09:06:50;12.50;82.50
81383;DHT22;70834;37.534;-122.308;2023-11-19T09:09:11;12.50;82.40
81383;DHT22;70834;37.534;-122.308;2023-11-19T09:11:33;12.40;82.40
81383;DHT22;70834;37.534;-122.308;2023-11-19T09:13:54;12.40;82.50
81383;DHT22;70834;37.534;-122.308;2023-11-19T09:16:16;12.40;82.50
81383;DHT22;70834;37.534;-122.308;2023-11-19T09:18:37;12.40;82.60
81383;DHT22;70834;37.534;-122.308;2023-11-19T09:20:58;12.30;82.50
81383;DHT22;70834;37.534;-122.308;2023-11-19T09:23:20;12.30;82.60
81383;DHT22;70834;37.534;-122.308;2023-11-19T09:25:42;12.30;82.60
81383;DHT22;70834;37.534;-122.308;2023-11-19T09:28:03;12.30;82.60
81383;DHT22;70834;37.534;-122.308;2023-11-19T09:30:25;12.30;82.70
81383;DHT22;70834;37.534;-122.308;2023-11-19T09:32:46;12.20;82.60
81383;DHT22;70834;37.534;-122.308;2023-11-19T09:35:08;12.20;82.60
81383;DHT22;70834;37.534;-122.308;2023-11-19T09:37:29;12.20;82.70
81383;DHT22;70834;37.534;-122.308;2023-11-19T09:39:51;12.20;82.70
81383;DHT22;70834;37.534;-122.308;2023-11-19T09:42:12;12.10;82.80
81383;DHT22;70834;37.534;-122.308;2023-11-19T09:44:34;12.10;82.80
81383;DHT22;70834;37.534;-122.308;2023-11-19T09:46:56;12.10;82.80
81383;DHT22;70834;37.534;-122.308;2023-11-19T09:49:21;12.10;82.80
81383;DHT22;70834;37.534;-122.308;2023-11-19T09:51:44;12.10;83.00
81383;DHT22;70834;37.534;-122.308;2023-11-19T09:54:06;12.10;83.10
81383;DHT22;70834;37.534;-122.308;2023-11-19T09:56:29;12.00;83.20
81383;DHT22;70834;37.534;-122.308;2023-11-19T09:58:50;12.00;83.20
81383;DHT22;70834;37.534;-122.308;2023-11-19T10:01:12;12.00;83.30
81383;DHT22;70834;37.534;-122.308;2023-11-19T10:03:34;12.00;83.40
81383;DHT22;70834;37.534;-122.308;2023-11-19T10:06:00;11.90;83.40
81383;DHT22;70834;37.534;-122.308;2023-11-19T10:08:22;12.00;83.50
81383;DHT22;70834;37.534;-122.308;2023-11-19T10:10:43;11.90;83.40
81383;DHT22;70834;37.534;-122.308;2023-11-19T10:13:05;11.90;83.30
81383;DHT22;70834;37.534;-122.308;2023-11-19T10:15:37;11.90;83.50
81383;DHT22;70834;37.534;-122.308;2023-11-19T10:17:58;11.90;83.50
81383;DHT22;70834;37.534;-122.308;2023-11-19T10:20:20;11.80;83.40
81383;DHT22;70834;37.534;-122.308;2023-11-19T10:22:42;11.80;83.50
81383;DHT22;70834;37.534;-122.308;2023-11-19T10:25:04;11.80;83.60
81383;DHT22;70834;37.534;-122.308;2023-11-19T10:27:25;11.80;83.60
81383;DHT22;70834;37.534;-122.308;2023-11-19T10:29:47;11.70;83.50
81383;DHT22;70834;37.534;-122.308;2023-11-19T10:32:08;11.70;83.50
81383;DHT22;70834;37.534;-122.308;2023-11-19T10:34:30;11.70;83.60
81383;DHT22;70834;37.534;-122.308;2023-11-19T10:36:52;11.70;83.60
81383;DHT22;70834;37.534;-122.308;2023-11-19T10:39:14;11.70;83.60
81383;DHT22;70834;37.534;-122.308;2023-11-19T10:41:35;11.70;83.60
81383;DHT22;70834;37.534;-122.308;2023-11-19T10:43:57;11.60;83.60
81383;DHT22;70834;37.534;-122.308;2023-11-19T10:46:19;11.60;83.60
81383;DHT22;70834;37.534;-122.308;2023-11-19T10:48:44;11.60;83.50
81383;DHT22;70834;37.534;-122.308;2023-11-19T10:51:06;11.60;83.60
81383;DHT22;70834;37.534;-122.308;2023-11-19T10:53:29;11.60;83.50
81383;DHT22;70834;37.534;-122.308;2023-11-19T10:55:51;11.60;83.40
81383;DHT22;70834;37.534;-122.308;2023-11-19T10:58:16;11.50;83.20
81383;DHT22;70834;37.534;-122.308;2023-11-19T11:00:51;11.50;83.10
81383;DHT22;70834;37.534;-122.308;2023-11-19T11:03:21;11.40;83.00
81383;DHT22;70834;37.534;-122.308;2023-11-19T11:05:47;11.40;82.90
81383;DHT22;70834;37.534;-122.308;2023-11-19T11:08:08;11.40;82.80
81383;DHT22;70834;37.534;-122.308;2023-11-19T11:10:33;11.30;82.80
81383;DHT22;70834;37.534;-122.308;2023-11-19T11:12:59;11.30;82.90
81383;DHT22;70834;37.534;-122.308;2023-11-19T11:15:29;11.30;82.80
81383;DHT22;70834;37.534;-122.308;2023-11-19T11:17:54;11.20;82.80
81383;DHT22;70834;37.534;-122.308;2023-11-19T11:20:18;11.20;82.80
81383;DHT22;70834;37.534;-122.308;2023-11-19T11:22:55;11.20;82.90
81383;DHT22;70834;37.534;-122.308;2023-11-19T11:25:57;11.20;83.00
81383;DHT22;70834;37.534;-122.308;2023-11-19T11:31:09;11.10;83.10
81383;DHT22;70834;37.534;-122.308;2023-11-19T11:33:41;11.10;83.10
81383;DHT22;70834;37.534;-122.308;2023-11-19T11:36:20;11.00;83.20
81383;DHT22;70834;37.534;-122.308;2023-11-19T11:38:42;11.00;83.10
81383;DHT22;70834;37.534;-122.308;2023-11-19T11:41:17;11.00;83.00
81383;DHT22;70834;37.534;-122.308;2023-11-19T11:43:50;10.90;83.10
81383;DHT22;70834;37.534;-122.308;2023-11-19T11:48:57;10.80;83.30
81383;DHT22;70834;37.534;-122.308;2023-11-19T11:54:25;10.80;83.70
81383;DHT22;70834;37.534;-122.308;2023-11-19T11:57:09;10.80;84.00
81383;DHT22;70834;37.534;-122.308;2023-11-19T11:59:45;10.70;84.00
81383;DHT22;70834;37.534;-122.308;2023-11-19T12:02:08;10.70;84.30
81383;DHT22;70834;37.534;-122.308;2023-11-19T12:04:30;10.70;84.50
81383;DHT22;70834;37.534;-122.308;2023-11-19T12:07:08;10.70;84.70
81383;DHT22;70834;37.534;-122.308;2023-11-19T12:09:33;10.70;84.80
81383;DHT22;70834;37.534;-122.308;2023-11-19T12:12:28;10.70;84.80
81383;DHT22;70834;37.534;-122.308;2023-11-19T12:15:00;10.70;84.80
81383;DHT22;70834;37.534;-122.308;2023-11-19T12:19:56;10.60;84.70
81383;DHT22;70834;37.534;-122.308;2023-11-19T12:22:18;10.60;84.70
81383;DHT22;70834;37.534;-122.308;2023-11-19T12:24:40;10.70;84.80
81383;DHT22;70834;37.534;-122.308;2023-11-19T12:27:01;10.60;84.80
81383;DHT22;70834;37.534;-122.308;2023-11-19T12:29:23;10.60;84.90
81383;DHT22;70834;37.534;-122.308;2023-11-19T12:31:54;10.60;84.90
81383;DHT22;70834;37.534;-122.308;2023-11-19T12:34:16;10.60;84.90
81383;DHT22;70834;37.534;-122.308;2023-11-19T12:36:37;10.60;84.90
81383;DHT22;70834;37.534;-122.308;2023-11-19T12:38:59;10.60;85.40
81383;DHT22;70834;37.534;-122.308;2023-11-19T12:41:21;10.60;84.70
81383;DHT22;70834;37.534;-122.308;2023-11-19T12:43:44;10.60;84.70
81383;DHT22;70834;37.534;-122.308;2023-11-19T12:46:22;10.60;84.50
81383;DHT22;70834;37.534;-122.308;2023-11-19T12:48:43;10.60;84.60
81383;DHT22;70834;37.534;-122.308;2023-11-19T12:51:05;10.60;84.50
81383;DHT22;70834;37.534;-122.308;2023-11-19T12:53:27;10.60;84.50
81383;DHT22;70834;37.534;-122.308;2023-11-19T12:55:50;10.60;84.50
81383;DHT22;70834;37.534;-122.308;2023-11-19T12:58:31;10.60;84.40
81383;DHT22;70834;37.534;-122.308;2023-11-19T13:01:07;10.60;85.00
81383;DHT22;70834;37.534;-122.308;2023-11-19T13:03:32;10.60;84.20
81383;DHT22;70834;37.534;-122.308;2023-11-19T13:06:02;10.60;84.10
81383;DHT22;70834;37.534;-122.308;2023-11-19T13:08:24;10.50;83.90
81383;DHT22;70834;37.534;-122.308;2023-11-19T13:13:13;10.50;83.80
81383;DHT22;70834;37.534;-122.308;2023-11-19T13:15:35;10.50;83.80
81383;DHT22;70834;37.534;-122.308;2023-11-19T13:17:57;10.40;83.80
81383;DHT22;70834;37.534;-122.308;2023-11-19T13:20:18;10.40;84.00
81383;DHT22;70834;37.534;-122.308;2023-11-19T13:23:00;10.40;84.20
81383;DHT22;70834;37.534;-122.308;2023-11-19T13:25:21;10.40;84.40
81383;DHT22;70834;37.534;-122.308;2023-11-19T13:27:46;10.50;84.40
81383;DHT22;70834;37.534;-122.308;2023-11-19T13:30:08;10.50;84.40
81383;DHT22;70834;37.534;-122.308;2023-11-19T13:32:29;10.60;84.50
81383;DHT22;70834;37.534;-122.308;2023-11-19T13:34:50;10.60;84.60
81383;DHT22;70834;37.534;-122.308;2023-11-19T13:37:12;10.60;84.60
81383;DHT22;70834;37.534;-122.308;2023-11-19T13:39:34;10.70;84.70
81383;DHT22;70834;37.534;-122.308;2023-11-19T13:41:55;10.70;84.80
81383;DHT22;70834;37.534;-122.308;2023-11-19T13:44:17;10.70;84.70
81383;DHT22;70834;37.534;-122.308;2023-11-19T13:46:39;10.70;84.60
81383;DHT22;70834;37.534;-122.308;2023-11-19T13:49:00;10.80;84.60
81383;DHT22;70834;37.534;-122.308;2023-11-19T13:51:21;10.80;84.60
81383;DHT22;70834;37.534;-122.308;2023-11-19T13:53:43;10.80;84.40
81383;DHT22;70834;37.534;-122.308;2023-11-19T13:56:05;10.80;84.80
81383;DHT22;70834;37.534;-122.308;2023-11-19T13:58:26;10.80;84.10
81383;DHT22;70834;37.534;-122.308;2023-11-19T14:00:48;10.80;84.00
81383;DHT22;70834;37.534;-122.308;2023-11-19T14:03:09;10.90;83.80
81383;DHT22;70834;37.534;-122.308;2023-11-19T14:05:34;10.90;83.70
81383;DHT22;70834;37.534;-122.308;2023-11-19T14:07:55;10.90;83.70
81383;DHT22;70834;37.534;-122.308;2023-11-19T14:10:17;10.90;83.60
81383;DHT22;70834;37.534;-122.308;2023-11-19T14:12:40;10.90;83.50
81383;DHT22;70834;37.534;-122.308;2023-11-19T14:15:01;10.90;83.40
81383;DHT22;70834;37.534;-122.308;2023-11-19T14:17:23;10.90;83.20
81383;DHT22;70834;37.534;-122.308;2023-11-19T14:19:45;10.90;83.10
81383;DHT22;70834;37.534;-122.308;2023-11-19T14:22:07;10.80;83.00
81383;DHT22;70834;37.534;-122.308;2023-11-19T14:24:29;10.80;83.10
81383;DHT22;70834;37.534;-122.308;2023-11-19T14:26:50;10.80;83.10
81383;DHT22;70834;37.534;-122.308;2023-11-19T14:29:12;10.90;83.00
81383;DHT22;70834;37.534;-122.308;2023-11-19T14:31:33;10.90;83.00
81383;DHT22;70834;37.534;-122.308;2023-11-19T14:33:56;10.90;82.60
81383;DHT22;70834;37.534;-122.308;2023-11-19T14:36:17;10.90;82.40